Time;durP1;ratioP1;P1;durP2;ratioP2;P2;SDS_P1;SDS_P2;PMS_P1;PMS_P2;Temp;Humidity;BMP_temperature;BMP_pressure;BME280_temperature;BME280_humidity;BME280_pressure;Samples;Min_cycle;Max_cycle;Signal;HPM_P1;HPM_P2
2021/09/26 00:00:53;;;;;;;10.70;9.60;;;20.20;75.00;;;;;;4996480;28;20116;-72
2021/09/26 00:03:19;;;;;;;12.20;10.23;;;20.20;75.10;;;;;;4996029;28;20034;-75
2021/09/26 00:05:44;;;;;;;12.40;9.40;;;20.20;75.10;;;;;;4996122;28;20042;-71
2021/09/26 00:08:10;;;;;;;10.57;9.13;;;20.20;75.30;;;;;;4995986;28;20085;-71
2021/09/26 00:10:36;;;;;;;13.05;9.43;;;20.20;75.10;;;;;;4995747;28;20403;-71
2021/09/26 00:13:02;;;;;;;14.63;9.63;;;20.20;75.10;;;;;;4995810;28;20039;-73
2021/09/26 00:15:28;;;;;;;13.55;9.52;;;20.20;74.90;;;;;;4994492;28;20031;-71
2021/09/26 00:17:54;;;;;;;12.57;9.55;;;20.20;74.70;;;;;;4996209;28;20039;-72
2021/09/26 00:20:21;;;;;;;11.55;10.07;;;20.20;74.40;;;;;;4995527;28;20085;-71
2021/09/26 00:22:47;;;;;;;10.18;9.13;;;20.20;74.10;;;;;;4995860;28;20395;-71
2021/09/26 00:25:15;;;;;;;19.38;10.05;;;20.20;74.10;;;;;;4995540;28;20121;-71
2021/09/26 00:27:41;;;;;;;13.93;9.35;;;20.20;74.30;;;;;;4995444;28;20030;-71
2021/09/26 00:30:08;;;;;;;13.73;9.98;;;20.10;74.40;;;;;;4995274;28;20561;-72
2021/09/26 00:32:34;;;;;;;10.70;9.65;;;20.10;74.40;;;;;;4995516;28;20101;-72
2021/09/26 00:35:00;;;;;;;13.90;10.15;;;20.10;74.50;;;;;;4995606;28;20042;-76
2021/09/26 00:37:26;;;;;;;14.32;10.70;;;20.10;74.60;;;;;;4977933;28;20037;-75
2021/09/26 00:39:52;;;;;;;13.88;10.48;;;20.10;75.30;;;;;;4995525;28;20042;-71
2021/09/26 00:42:18;;;;;;;11.68;9.30;;;20.00;74.50;;;;;;4995404;28;20080;-71
2021/09/26 00:44:44;;;;;;;10.57;9.43;;;20.00;74.60;;;;;;4995325;28;20042;-71
2021/09/26 00:47:09;;;;;;;14.32;9.13;;;20.00;74.60;;;;;;4995413;28;20026;-71
2021/09/26 00:49:35;;;;;;;10.45;9.35;;;20.00;75.00;;;;;;4995251;28;20115;-76
2021/09/26 00:52:01;;;;;;;14.02;10.07;;;20.00;74.90;;;;;;4995232;28;20034;-75
2021/09/26 00:54:27;;;;;;;11.93;9.98;;;20.00;74.80;;;;;;4995186;28;20478;-76
2021/09/26 00:56:52;;;;;;;14.10;10.52;;;19.90;74.80;;;;;;4995064;28;20030;-73
2021/09/26 00:59:20;;;;;;;12.45;10.25;;;20.00;74.90;;;;;;4992312;28;20053;-71
2021/09/26 01:01:47;;;;;;;11.02;9.85;;;19.90;75.20;;;;;;4992200;28;20065;-71
2021/09/26 01:04:15;;;;;;;12.45;9.57;;;19.90;75.20;;;;;;4992872;28;20056;-73
2021/09/26 01:07:18;;;;;;;13.48;10.45;;;19.80;75.10;;;;;;4994485;28;20026;-71
2021/09/26 01:10:10;;;;;;;12.70;9.80;;;19.90;75.70;;;;;;4994462;28;20479;-71
2021/09/26 01:12:53;;;;;;;11.40;9.95;;;19.80;75.70;;;;;;4994598;28;20034;-71
2021/09/26 01:15:28;;;;;;;11.43;10.10;;;19.80;75.80;;;;;;4994732;28;20058;-71
2021/09/26 01:18:32;;;;;;;11.27;10.15;;;19.80;76.30;;;;;;4994584;28;20030;-71
2021/09/26 01:21:04;;;;;;;14.43;9.70;;;19.80;76.50;;;;;;4993563;28;20042;-70
2021/09/26 01:24:16;;;;;;;12.77;9.70;;;19.80;76.60;;;;;;4994638;28;20088;-76
2021/09/26 01:26:45;;;;;;;12.88;9.40;;;19.80;76.40;;;;;;4989187;28;20051;-71
2021/09/26 01:29:11;;;;;;;12.45;10.45;;;19.80;76.00;;;;;;4994415;28;20034;-71
2021/09/26 01:31:44;;;;;;;15.63;10.52;;;19.80;75.90;;;;;;4993996;28;20422;-71
2021/09/26 01:34:12;;;;;;;15.25;11.02;;;19.80;75.90;;;;;;4994253;28;20030;-71
2021/09/26 01:36:46;;;;;;;16.77;10.90;;;19.70;75.90;;;;;;4994246;28;20045;-75
2021/09/26 01:39:26;;;;;;;15.20;11.00;;;19.70;76.00;;;;;;4994221;28;20105;-71
2021/09/26 01:42:15;;;;;;;11.63;9.63;;;19.70;76.10;;;;;;4994095;28;20061;-75
2021/09/26 01:45:05;;;;;;;12.32;9.45;;;19.70;76.40;;;;;;4993329;28;20034;-75
2021/09/26 01:47:37;;;;;;;12.68;9.88;;;19.60;76.60;;;;;;4994021;28;20034;-71
2021/09/26 01:50:07;;;;;;;15.70;9.50;;;19.70;76.80;;;;;;4993821;28;20042;-70
2021/09/26 01:52:36;;;;;;;12.93;9.80;;;19.60;76.80;;;;;;4994082;28;20521;-71
2021/09/26 01:55:05;;;;;;;11.07;9.65;;;19.60;77.00;;;;;;4994064;28;20090;-70
2021/09/26 01:57:32;;;;;;;13.18;9.88;;;19.60;77.10;;;;;;4993704;28;20037;-71
2021/09/26 02:00:03;;;;;;;11.43;9.15;;;19.60;76.90;;;;;;4993623;28;20113;-73
2021/09/26 02:02:29;;;;;;;10.75;9.60;;;19.60;76.90;;;;;;4993966;28;20431;-71
2021/09/26 02:04:59;;;;;;;13.27;9.35;;;19.50;77.00;;;;;;4993757;28;20034;-72
2021/09/26 02:07:30;;;;;;;13.02;9.05;;;19.60;77.00;;;;;;4993963;28;20097;-75
2021/09/26 02:09:58;;;;;;;14.40;9.05;;;19.50;76.80;;;;;;4993672;28;20053;-71
2021/09/26 02:12:26;;;;;;;11.45;9.25;;;19.60;76.80;;;;;;4993827;28;20058;-70
2021/09/26 02:14:53;;;;;;;10.57;9.45;;;19.50;76.90;;;;;;4993812;28;20030;-75
2021/09/26 02:17:20;;;;;;;15.57;9.70;;;19.50;76.80;;;;;;4994405;28;20026;-71
2021/09/26 02:19:47;;;;;;;17.88;9.95;;;19.50;76.70;;;;;;4993401;28;20041;-76
2021/09/26 02:22:14;;;;;;;11.07;9.48;;;19.40;76.80;;;;;;4993921;28;20038;-71
2021/09/26 02:24:40;;;;;;;11.75;10.27;;;19.40;76.90;;;;;;4993844;28;20383;-71
2021/09/26 02:27:06;;;;;;;12.93;10.90;;;19.40;76.80;;;;;;4993956;28;20117;-71
2021/09/26 02:29:33;;;;;;;13.05;10.50;;;19.40;76.90;;;;;;4993806;28;20538;-72
2021/09/26 02:31:59;;;;;;;12.57;11.27;;;19.30;76.70;;;;;;4993496;28;20054;-71
2021/09/26 02:34:25;;;;;;;13.07;11.02;;;19.30;76.60;;;;;;4993810;28;20482;-72
2021/09/26 02:36:50;;;;;;;14.27;10.95;;;19.30;76.50;;;;;;4993715;28;20040;-73
2021/09/26 02:39:17;;;;;;;13.45;11.75;;;19.30;76.80;;;;;;4996529;28;20026;-71
2021/09/26 02:42:27;;;;;;;12.07;10.45;;;19.30;77.20;;;;;;4997522;28;20065;-72
2021/09/26 02:45:13;;;;;;;11.30;10.07;;;19.30;77.20;;;;;;4899413;29;20606;-71
2021/09/26 02:47:53;;;;;;;11.73;10.15;;;19.30;77.30;;;;;;4990279;28;20030;-71
2021/09/26 02:50:20;;;;;;;14.85;12.15;;;19.30;77.60;;;;;;4997259;28;20038;-71
2021/09/26 02:52:46;;;;;;;13.73;10.80;;;19.20;77.50;;;;;;4997306;28;20042;-72
2021/09/26 02:55:14;;;;;;;15.32;11.40;;;19.30;77.60;;;;;;4997384;28;20045;-74
2021/09/26 02:57:40;;;;;;;15.52;11.82;;;19.20;77.30;;;;;;4997437;28;20051;-72
2021/09/26 03:00:07;;;;;;;13.90;10.35;;;19.30;77.40;;;;;;4997228;28;20062;-72
2021/09/26 03:02:34;;;;;;;12.02;10.80;;;19.30;77.30;;;;;;4996902;28;20066;-72
2021/09/26 03:05:00;;;;;;;14.48;11.05;;;19.30;77.20;;;;;;4997479;28;20030;-72
2021/09/26 03:07:25;;;;;;;13.05;9.50;;;19.30;77.80;;;;;;4997194;28;20541;-72
2021/09/26 03:09:51;;;;;;;13.60;10.45;;;19.30;77.10;;;;;;4996934;28;20082;-71
2021/09/26 03:12:20;;;;;;;12.70;10.38;;;19.30;77.00;;;;;;4997026;28;20162;-71
2021/09/26 03:14:46;;;;;;;12.57;10.48;;;19.30;77.10;;;;;;4997240;28;20043;-71
2021/09/26 03:17:12;;;;;;;17.27;10.30;;;19.30;77.30;;;;;;4996840;28;20133;-72
2021/09/26 03:19:38;;;;;;;14.68;10.70;;;19.30;77.10;;;;;;4996927;28;20118;-72
2021/09/26 03:22:05;;;;;;;16.00;10.70;;;19.30;77.10;;;;;;4996836;28;20030;-72
2021/09/26 03:24:32;;;;;;;17.95;10.85;;;19.40;77.30;;;;;;4996701;28;20089;-71
2021/09/26 03:27:00;;;;;;;15.02;10.68;;;19.40;77.20;;;;;;4996805;28;20022;-72
2021/09/26 03:29:26;;;;;;;14.23;10.20;;;19.40;77.00;;;;;;4996207;28;20042;-72
2021/09/26 03:31:52;;;;;;;13.20;10.02;;;19.40;77.00;;;;;;4996620;28;20196;-74
2021/09/26 03:34:17;;;;;;;11.70;10.20;;;19.40;77.00;;;;;;4996566;28;20109;-72
2021/09/26 03:36:43;;;;;;;13.98;10.98;;;19.40;77.00;;;;;;4996647;28;20122;-72
2021/09/26 03:39:08;;;;;;;14.35;10.85;;;19.40;76.80;;;;;;4996451;28;20482;-71
2021/09/26 03:41:34;;;;;;;11.80;9.65;;;19.40;76.80;;;;;;4996432;28;20100;-72
2021/09/26 03:44:00;;;;;;;16.02;11.05;;;19.40;77.00;;;;;;4996393;28;20106;-71
2021/09/26 03:46:26;;;;;;;12.75;9.65;;;19.40;77.30;;;;;;4996444;28;20522;-71
2021/09/26 03:48:51;;;;;;;11.77;10.45;;;19.40;77.50;;;;;;4996090;28;20383;-71
2021/09/26 03:51:18;;;;;;;11.25;9.55;;;19.40;77.80;;;;;;4996430;28;20066;-71
2021/09/26 03:53:43;;;;;;;10.05;8.85;;;19.40;77.70;;;;;;4996226;28;20129;-72
2021/09/26 03:56:10;;;;;;;13.55;9.02;;;19.40;77.40;;;;;;4996515;28;20109;-75
2021/09/26 03:58:36;;;;;;;10.90;9.48;;;19.40;78.00;;;;;;4996066;28;20590;-72
2021/09/26 04:01:03;;;;;;;11.18;9.63;;;19.40;77.50;;;;;;4996066;28;20042;-72
2021/09/26 04:03:28;;;;;;;10.52;8.68;;;19.40;77.50;;;;;;4996218;28;20426;-72
2021/09/26 04:05:54;;;;;;;11.88;9.63;;;19.40;77.70;;;;;;4978806;28;20030;-72
2021/09/26 04:08:20;;;;;;;11.82;9.27;;;19.40;77.90;;;;;;4996142;28;20390;-71
2021/09/26 04:10:45;;;;;;;12.00;8.90;;;19.40;78.00;;;;;;4996180;28;20057;-71
2021/09/26 04:13:11;;;;;;;12.80;9.82;;;19.40;78.00;;;;;;4995627;28;20390;-72
2021/09/26 04:15:37;;;;;;;10.70;9.65;;;19.40;77.70;;;;;;4995916;28;20043;-72
2021/09/26 04:18:03;;;;;;;12.05;9.77;;;19.40;77.50;;;;;;4995737;28;20475;-72
2021/09/26 04:20:28;;;;;;;11.68;9.82;;;19.40;77.50;;;;;;4995779;28;20038;-71
2021/09/26 04:22:54;;;;;;;10.55;9.45;;;19.40;77.40;;;;;;4995748;28;20114;-72
2021/09/26 04:25:20;;;;;;;11.43;9.68;;;19.40;77.30;;;;;;4995542;28;20030;-71
2021/09/26 04:27:46;;;;;;;11.82;9.60;;;19.40;77.50;;;;;;4995937;28;20479;-74
2021/09/26 04:30:12;;;;;;;10.55;9.45;;;19.40;77.90;;;;;;4995355;28;20046;-72
2021/09/26 04:32:38;;;;;;;11.75;9.80;;;19.30;78.20;;;;;;4995462;28;20045;-75
2021/09/26 04:35:05;;;;;;;10.60;9.52;;;19.40;78.20;;;;;;4995425;28;20060;-71
2021/09/26 04:37:31;;;;;;;15.73;10.05;;;19.30;77.90;;;;;;4978161;28;20446;-74
2021/09/26 04:39:57;;;;;;;10.15;9.15;;;19.40;77.80;;;;;;4995409;28;20035;-72
2021/09/26 04:42:22;;;;;;;15.02;9.13;;;19.40;77.90;;;;;;4995366;28;20038;-71
2021/09/26 04:44:48;;;;;;;11.55;9.30;;;19.40;78.20;;;;;;4995375;28;20538;-71
2021/09/26 04:47:14;;;;;;;14.05;9.65;;;19.30;78.10;;;;;;4994945;28;20187;-76
2021/09/26 04:49:39;;;;;;;12.60;9.45;;;19.40;78.10;;;;;;4977551;28;20048;-72
2021/09/26 04:52:05;;;;;;;11.02;9.93;;;19.40;78.30;;;;;;4995281;28;20100;-72
2021/09/26 04:54:31;;;;;;;15.13;9.45;;;19.30;78.30;;;;;;4995275;28;20031;-75
2021/09/26 04:56:57;;;;;;;14.95;8.45;;;19.40;78.20;;;;;;4995098;28;20035;-71
2021/09/26 04:59:24;;;;;;;11.15;8.50;;;19.30;78.00;;;;;;4994744;28;20034;-71
2021/09/26 05:01:50;;;;;;;11.75;8.45;;;19.30;78.10;;;;;;4994265;28;20069;-71
2021/09/26 05:04:15;;;;;;;13.25;9.00;;;19.30;78.00;;;;;;4994966;28;20464;-72
2021/09/26 05:06:41;;;;;;;13.30;8.60;;;19.40;78.70;;;;;;4994816;28;20070;-71
2021/09/26 05:09:07;;;;;;;13.50;8.07;;;19.40;78.00;;;;;;4994670;28;20486;-72
2021/09/26 05:11:32;;;;;;;9.52;8.48;;;19.40;78.00;;;;;;4994716;28;20085;-73
2021/09/26 05:13:58;;;;;;;16.15;8.30;;;19.40;78.20;;;;;;4994778;28;20050;-72
2021/09/26 05:16:24;;;;;;;10.82;7.95;;;19.40;78.10;;;;;;4994795;28;20035;-71
2021/09/26 05:18:49;;;;;;;11.73;8.90;;;19.40;78.20;;;;;;4994516;28;20046;-71
2021/09/26 05:21:15;;;;;;;11.00;9.20;;;19.40;78.50;;;;;;4994451;28;20042;-72
2021/09/26 05:23:41;;;;;;;10.55;9.40;;;19.40;78.60;;;;;;4994490;28;20541;-75
2021/09/26 05:26:08;;;;;;;9.95;8.93;;;19.40;78.80;;;;;;4994709;28;20050;-75
2021/09/26 05:28:34;;;;;;;9.55;8.65;;;19.40;78.80;;;;;;4994489;28;20101;-72
2021/09/26 05:31:00;;;;;;;9.90;8.93;;;19.40;78.70;;;;;;4994395;28;20478;-71
2021/09/26 05:33:28;;;;;;;12.20;9.40;;;19.40;78.50;;;;;;4992792;28;20663;-72
2021/09/26 05:35:55;;;;;;;10.88;9.20;;;19.40;78.40;;;;;;4991718;28;20085;-72
2021/09/26 05:38:20;;;;;;;10.77;8.93;;;19.40;78.30;;;;;;4991620;28;20042;-71
2021/09/26 05:40:46;;;;;;;13.82;9.07;;;19.40;78.30;;;;;;4993436;28;20048;-72
2021/09/26 05:43:12;;;;;;;11.75;9.18;;;19.40;78.30;;;;;;4994141;28;20062;-71
2021/09/26 05:45:37;;;;;;;14.35;8.95;;;19.30;78.30;;;;;;4994162;28;20049;-72
2021/09/26 05:48:03;;;;;;;9.98;8.88;;;19.40;78.40;;;;;;4993738;28;20041;-75
2021/09/26 05:50:29;;;;;;;9.68;8.68;;;19.40;78.60;;;;;;4993781;28;20053;-71
2021/09/26 05:52:55;;;;;;;9.65;8.75;;;19.40;78.50;;;;;;4993237;28;20062;-71
2021/09/26 05:55:20;;;;;;;10.07;9.07;;;19.30;78.40;;;;;;4993447;28;20469;-73
2021/09/26 05:57:46;;;;;;;12.93;9.43;;;19.40;78.30;;;;;;4993591;28;20034;-71
2021/09/26 06:00:12;;;;;;;12.23;9.15;;;19.40;78.30;;;;;;4991649;28;20395;-72
2021/09/26 06:02:38;;;;;;;13.60;8.75;;;19.30;78.40;;;;;;4990573;28;20491;-72
2021/09/26 06:05:08;;;;;;;9.93;8.93;;;19.40;78.50;;;;;;4991410;28;20084;-72
2021/09/26 06:07:34;;;;;;;11.57;9.30;;;19.40;78.90;;;;;;4993546;28;20042;-72
2021/09/26 06:10:00;;;;;;;9.45;8.40;;;19.40;79.00;;;;;;4993210;28;20085;-72
2021/09/26 06:12:27;;;;;;;11.13;8.95;;;19.40;79.00;;;;;;4993116;28;20046;-72
2021/09/26 06:14:52;;;;;;;11.93;8.43;;;19.40;78.90;;;;;;4992841;28;20042;-72
2021/09/26 06:17:18;;;;;;;12.13;8.55;;;19.40;78.90;;;;;;4993324;28;20061;-70
2021/09/26 06:19:44;;;;;;;10.05;8.10;;;19.40;78.90;;;;;;4993586;28;20100;-72
2021/09/26 06:22:09;;;;;;;9.55;8.27;;;19.40;79.00;;;;;;4993670;28;20483;-72
2021/09/26 06:24:35;;;;;;;9.27;8.32;;;19.50;78.90;;;;;;4993449;28;20058;-72
2021/09/26 06:27:01;;;;;;;9.52;8.48;;;19.40;78.70;;;;;;4993575;28;20034;-74
2021/09/26 06:29:27;;;;;;;9.45;8.38;;;19.50;78.70;;;;;;4993476;28;20090;-74
2021/09/26 06:31:53;;;;;;;13.48;8.85;;;19.50;78.80;;;;;;4993549;28;20034;-71
2021/09/26 06:34:19;;;;;;;10.75;8.13;;;19.50;78.80;;;;;;4993507;28;20022;-74
2021/09/26 06:36:44;;;;;;;11.52;8.93;;;19.50;78.80;;;;;;4991662;28;20065;-71
2021/09/26 06:39:10;;;;;;;12.27;8.73;;;19.60;78.70;;;;;;4992081;28;20037;-75
2021/09/26 06:41:37;;;;;;;12.27;9.70;;;19.60;78.40;;;;;;4975347;28;20534;-73
2021/09/26 06:44:02;;;;;;;10.95;9.25;;;19.60;78.00;;;;;;4993425;28;20037;-75
2021/09/26 06:46:29;;;;;;;10.25;8.70;;;19.60;78.00;;;;;;4993654;28;20057;-72
2021/09/26 06:48:54;;;;;;;10.18;9.18;;;19.70;78.40;;;;;;4992823;28;20493;-74
2021/09/26 06:51:20;;;;;;;9.65;8.65;;;19.60;78.60;;;;;;4993328;28;20042;-75
2021/09/26 06:53:46;;;;;;;11.30;9.07;;;19.70;78.80;;;;;;4993519;28;20367;-74
2021/09/26 06:56:12;;;;;;;10.40;8.85;;;19.70;78.90;;;;;;4993353;28;20038;-73
2021/09/26 06:58:38;;;;;;;12.98;10.30;;;19.70;79.10;;;;;;4993795;28;20022;-72
2021/09/26 07:01:04;;;;;;;11.02;9.77;;;19.70;78.90;;;;;;4993457;28;20062;-72
2021/09/26 07:03:30;;;;;;;11.80;9.95;;;19.70;78.40;;;;;;4993630;28;20073;-72
2021/09/26 07:05:56;;;;;;;10.70;9.35;;;19.80;77.90;;;;;;4993546;28;20073;-72
2021/09/26 07:08:22;;;;;;;12.20;9.48;;;19.80;77.80;;;;;;4993229;28;20113;-72
2021/09/26 07:10:48;;;;;;;12.27;9.13;;;19.80;77.60;;;;;;4993289;28;20060;-72
2021/09/26 07:13:14;;;;;;;12.70;9.68;;;19.80;77.70;;;;;;4993417;28;20041;-72
2021/09/26 07:15:39;;;;;;;14.32;10.80;;;19.80;77.60;;;;;;4993591;28;20030;-75
2021/09/26 07:18:05;;;;;;;16.00;11.68;;;19.80;77.80;;;;;;4993284;28;20093;-72
2021/09/26 07:20:31;;;;;;;18.48;13.48;;;19.80;77.90;;;;;;4993490;28;20108;-75
2021/09/26 07:23:01;;;;;;;14.38;11.25;;;19.90;77.90;;;;;;4993487;28;20030;-72
2021/09/26 07:25:28;;;;;;;13.65;10.20;;;19.90;77.60;;;;;;4996427;28;20042;-72
2021/09/26 07:27:55;;;;;;;13.10;10.40;;;19.90;77.50;;;;;;4996826;28;20023;-73
2021/09/26 07:30:21;;;;;;;15.20;9.00;;;19.90;77.30;;;;;;4996524;28;20058;-73
2021/09/26 07:32:46;;;;;;;11.13;9.93;;;19.90;77.20;;;;;;4996185;28;20105;-73
2021/09/26 07:35:12;;;;;;;11.32;9.65;;;19.90;77.10;;;;;;4996542;28;20114;-72
2021/09/26 07:37:38;;;;;;;11.40;9.15;;;19.90;76.80;;;;;;4996093;28;20038;-72
2021/09/26 07:40:06;;;;;;;10.20;9.07;;;19.90;76.80;;;;;;4996386;28;20049;-72
2021/09/26 07:42:32;;;;;;;16.35;9.20;;;20.00;76.80;;;;;;4996363;28;20126;-72
2021/09/26 07:45:02;;;;;;;14.63;8.70;;;20.00;76.70;;;;;;4996465;28;20074;-74
2021/09/26 07:47:28;;;;;;;10.13;8.98;;;20.00;76.60;;;;;;4996494;28;20037;-72
2021/09/26 07:49:55;;;;;;;13.00;8.68;;;20.10;76.50;;;;;;4996110;28;20390;-72
2021/09/26 07:52:22;;;;;;;13.40;9.00;;;20.10;76.50;;;;;;4996009;28;20120;-72
2021/09/26 07:54:47;;;;;;;12.55;7.97;;;20.10;76.40;;;;;;4995965;28;20048;-72
2021/09/26 07:57:13;;;;;;;10.23;8.00;;;20.10;76.50;;;;;;4996308;28;20475;-76
2021/09/26 07:59:40;;;;;;;9.35;8.18;;;20.20;76.60;;;;;;4995826;28;20026;-72
2021/09/26 08:02:06;;;;;;;11.20;7.97;;;20.20;76.70;;;;;;4996201;28;20046;-72
2021/09/26 08:04:33;;;;;;;11.32;7.85;;;20.20;76.70;;;;;;4996007;28;20035;-73
2021/09/26 08:06:59;;;;;;;9.90;8.63;;;20.20;76.70;;;;;;4995588;28;20031;-73
2021/09/26 08:09:25;;;;;;;8.07;7.28;;;20.20;77.00;;;;;;4994603;28;20085;-73
2021/09/26 08:11:51;;;;;;;13.75;8.00;;;20.20;77.00;;;;;;4994437;28;20042;-73
2021/09/26 08:14:16;;;;;;;10.88;7.57;;;20.30;77.10;;;;;;4977093;28;20069;-73
2021/09/26 08:16:42;;;;;;;9.23;8.20;;;20.30;76.80;;;;;;4995893;28;20042;-72
2021/09/26 08:19:08;;;;;;;9.48;6.80;;;20.40;76.60;;;;;;4995790;28;20030;-72
2021/09/26 08:21:34;;;;;;;9.45;7.47;;;20.40;76.50;;;;;;4995754;28;20082;-74
2021/09/26 08:23:59;;;;;;;9.93;7.43;;;20.40;76.40;;;;;;4995663;28;20058;-73
2021/09/26 08:26:25;;;;;;;8.57;6.90;;;20.40;76.40;;;;;;4995918;28;20038;-73
2021/09/26 08:28:51;;;;;;;12.23;6.90;;;20.50;76.40;;;;;;4995385;28;20084;-73
2021/09/26 08:31:17;;;;;;;12.45;6.60;;;20.50;76.20;;;;;;4995029;28;20050;-73
2021/09/26 08:33:43;;;;;;;10.15;6.55;;;20.60;76.10;;;;;;4994946;28;20022;-73
2021/09/26 08:36:09;;;;;;;9.63;6.45;;;20.70;76.20;;;;;;4994001;28;20033;-73
2021/09/26 08:38:35;;;;;;;5.88;5.30;;;20.70;75.90;;;;;;4995256;28;20125;-74
2021/09/26 08:41:01;;;;;;;6.30;5.50;;;20.70;75.80;;;;;;4995165;28;20047;-74
2021/09/26 08:43:27;;;;;;;7.80;5.38;;;20.80;75.80;;;;;;4995249;28;20030;-72
2021/09/26 08:45:53;;;;;;;9.05;4.97;;;20.80;75.90;;;;;;4995310;28;20101;-73
2021/09/26 08:48:19;;;;;;;6.85;5.32;;;20.90;75.80;;;;;;4995351;28;20031;-72
2021/09/26 08:50:45;;;;;;;9.20;5.68;;;20.90;75.80;;;;;;4995183;28;20133;-74
2021/09/26 08:53:11;;;;;;;5.18;4.63;;;21.00;75.40;;;;;;4995126;28;20054;-73
2021/09/26 08:55:37;;;;;;;8.43;5.30;;;21.00;75.20;;;;;;4995174;28;20180;-74
2021/09/26 08:58:03;;;;;;;10.02;5.55;;;21.00;75.20;;;;;;4995083;28;20041;-73
2021/09/26 09:00:29;;;;;;;7.15;5.63;;;21.10;75.50;;;;;;4995359;28;20114;-73
2021/09/26 09:02:57;;;;;;;10.60;5.13;;;21.10;75.20;;;;;;4995130;28;20051;-74
2021/09/26 09:05:28;;;;;;;10.27;5.72;;;21.10;75.10;;;;;;4994783;28;20133;-74
2021/09/26 09:08:07;;;;;;;8.02;5.78;;;21.10;75.50;;;;;;4994965;28;20033;-74
2021/09/26 09:10:58;;;;;;;9.70;5.55;;;21.20;75.70;;;;;;4994831;28;20042;-73
2021/09/26 09:13:34;;;;;;;9.85;5.60;;;21.20;75.90;;;;;;4983097;28;20038;-72
2021/09/26 09:16:11;;;;;;;7.13;5.32;;;21.30;75.60;;;;;;4994644;28;20514;-73
2021/09/26 09:18:52;;;;;;;9.90;5.63;;;21.30;75.40;;;;;;4994439;28;20023;-72
2021/09/26 09:21:27;;;;;;;8.15;4.85;;;21.40;75.40;;;;;;4994531;28;20049;-73
2021/09/26 09:24:20;;;;;;;8.40;5.10;;;21.40;75.00;;;;;;4994538;28;20483;-74
2021/09/26 09:26:47;;;;;;;9.23;4.68;;;21.50;74.50;;;;;;4984811;28;20113;-73
2021/09/26 09:29:13;;;;;;;9.52;4.47;;;21.50;74.40;;;;;;4994595;28;20128;-73
2021/09/26 09:31:57;;;;;;;9.25;4.90;;;21.60;74.60;;;;;;4994470;28;20038;-74
2021/09/26 09:34:37;;;;;;;5.75;3.97;;;21.60;74.30;;;;;;4994393;28;20574;-73
2021/09/26 09:37:26;;;;;;;8.18;4.50;;;21.70;74.00;;;;;;4994690;28;20482;-74
2021/09/26 09:40:16;;;;;;;6.40;4.60;;;21.70;73.90;;;;;;4977050;28;20038;-73
2021/09/26 09:42:44;;;;;;;6.03;3.72;;;21.80;73.80;;;;;;4994338;28;20542;-74
2021/09/26 09:45:18;;;;;;;5.38;3.55;;;21.90;73.50;;;;;;4994335;28;20491;-74
2021/09/26 09:47:54;;;;;;;7.00;3.70;;;21.90;73.60;;;;;;4993793;28;20057;-72
2021/09/26 09:50:20;;;;;;;4.10;3.55;;;21.90;73.80;;;;;;4994122;28;20038;-72
2021/09/26 09:52:52;;;;;;;7.75;4.10;;;22.00;73.80;;;;;;4994472;28;20031;-72
2021/09/26 09:55:19;;;;;;;8.63;3.92;;;22.00;73.50;;;;;;4976759;28;20049;-72
2021/09/26 09:57:45;;;;;;;8.05;3.97;;;22.00;73.80;;;;;;4993932;28;20037;-73
2021/09/26 10:00:19;;;;;;;7.35;4.20;;;22.00;73.70;;;;;;4993795;28;20038;-73
2021/09/26 10:02:45;;;;;;;6.00;4.15;;;22.10;73.80;;;;;;4994146;28;20391;-73
2021/09/26 10:05:40;;;;;;;10.95;4.32;;;22.10;74.00;;;;;;4994063;28;20045;-74
2021/09/26 10:08:06;;;;;;;6.13;4.35;;;22.10;73.80;;;;;;4973104;28;20425;-73
2021/09/26 10:10:32;;;;;;;6.30;4.50;;;22.10;73.90;;;;;;4993782;28;20038;-73
2021/09/26 10:13:10;;;;;;;10.77;4.72;;;22.10;73.90;;;;;;4994173;28;20026;-74
2021/09/26 10:15:36;;;;;;;6.03;4.13;;;22.10;73.50;;;;;;4994282;28;20034;-73
2021/09/26 10:18:01;;;;;;;9.18;4.43;;;22.10;73.50;;;;;;4993736;28;20394;-73
2021/09/26 10:20:27;;;;;;;6.25;5.15;;;22.10;73.50;;;;;;4993939;28;20034;-73
2021/09/26 10:22:53;;;;;;;8.80;4.32;;;22.20;73.40;;;;;;4993935;28;20081;-72
2021/09/26 10:25:20;;;;;;;7.10;4.55;;;22.20;73.10;;;;;;4993592;28;20038;-73
2021/09/26 10:27:46;;;;;;;10.63;4.60;;;22.20;73.10;;;;;;4993818;28;20026;-74
2021/09/26 10:30:13;;;;;;;4.93;3.85;;;22.20;73.50;;;;;;4993551;28;20054;-74
2021/09/26 10:32:39;;;;;;;5.63;4.80;;;22.20;73.30;;;;;;4993639;28;20043;-73
2021/09/26 10:35:06;;;;;;;9.88;4.25;;;22.20;73.30;;;;;;4976330;28;20475;-73
2021/09/26 10:37:32;;;;;;;7.05;4.72;;;22.20;73.40;;;;;;4993664;28;20034;-74
2021/09/26 10:39:59;;;;;;;5.68;4.18;;;22.20;73.40;;;;;;4993914;28;20522;-74
2021/09/26 10:42:33;;;;;;;10.88;4.68;;;22.20;73.90;;;;;;4993774;28;20068;-73
2021/09/26 10:45:02;;;;;;;9.35;4.80;;;22.20;74.10;;;;;;4976125;28;20041;-73
2021/09/26 10:47:33;;;;;;;6.63;4.05;;;22.20;74.00;;;;;;4976159;28;20053;-75
2021/09/26 10:50:02;;;;;;;6.93;4.55;;;22.20;73.90;;;;;;4993688;28;20030;-72
2021/09/26 10:53:05;;;;;;;14.68;4.53;;;22.20;73.30;;;;;;4993513;28;20054;-75
2021/09/26 10:55:32;;;;;;;10.60;4.60;;;22.30;73.20;;;;;;4993534;28;20042;-73
2021/09/26 10:58:00;;;;;;;6.63;5.10;;;22.30;73.50;;;;;;4992293;28;20061;-72
2021/09/26 11:00:36;;;;;;;10.38;4.70;;;22.30;73.80;;;;;;4993658;28;20066;-73
2021/09/26 11:03:16;;;;;;;6.53;4.30;;;22.30;73.80;;;;;;4994496;28;20050;-74
2021/09/26 11:05:52;;;;;;;8.20;4.80;;;22.30;73.90;;;;;;4997136;28;20046;-73
2021/09/26 11:08:24;;;;;;;12.32;4.80;;;22.30;73.70;;;;;;4997185;28;20053;-73
2021/09/26 11:11:02;;;;;;;8.80;4.90;;;22.30;73.90;;;;;;4997140;28;20055;-73
2021/09/26 11:13:34;;;;;;;7.72;4.68;;;22.30;74.30;;;;;;4997026;28;20478;-75
2021/09/26 11:16:09;;;;;;;7.57;4.93;;;22.30;74.10;;;;;;4997219;28;20039;-75
2021/09/26 11:18:50;;;;;;;10.70;5.82;;;22.30;73.80;;;;;;4996966;28;20494;-73
2021/09/26 11:21:37;;;;;;;6.90;4.90;;;22.20;73.60;;;;;;4997119;28;20042;-74
2021/09/26 11:24:32;;;;;;;7.05;4.80;;;22.20;73.50;;;;;;4994690;28;20058;-73
2021/09/26 11:26:58;;;;;;;5.82;5.22;;;22.20;73.50;;;;;;4993950;28;20117;-73
2021/09/26 11:29:28;;;;;;;7.15;5.60;;;22.10;73.90;;;;;;4994654;28;20121;-73
2021/09/26 11:31:57;;;;;;;8.85;4.80;;;22.10;73.70;;;;;;4996471;28;20050;-72
2021/09/26 11:34:35;;;;;;;5.05;4.55;;;22.10;73.80;;;;;;4995708;28;20034;-73
2021/09/26 11:37:01;;;;;;;8.43;5.10;;;22.00;74.00;;;;;;4994644;28;20490;-72
2021/09/26 11:39:29;;;;;;;8.55;4.93;;;22.00;74.20;;;;;;4995441;28;20035;-72
2021/09/26 11:41:55;;;;;;;7.72;4.53;;;22.10;74.30;;;;;;4995701;28;20042;-74
2021/09/26 11:44:21;;;;;;;11.48;4.97;;;22.00;74.40;;;;;;4995573;28;20042;-72
2021/09/26 11:46:49;;;;;;;15.32;5.35;;;22.00;74.40;;;;;;4995528;28;20030;-72
2021/09/26 11:49:15;;;;;;;7.97;5.10;;;22.10;74.50;;;;;;4995196;28;20097;-70
2021/09/26 11:51:41;;;;;;;11.85;5.00;;;22.10;74.50;;;;;;4995722;28;20498;-71
2021/09/26 11:54:07;;;;;;;8.02;5.15;;;22.10;74.70;;;;;;4995003;28;20050;-69
2021/09/26 11:56:38;;;;;;;5.63;5.00;;;22.10;74.40;;;;;;4996050;28;20088;-70
2021/09/26 11:59:07;;;;;;;6.95;5.32;;;22.20;74.60;;;;;;4996224;28;20401;-70
2021/09/26 12:01:40;;;;;;;9.18;5.28;;;22.20;74.60;;;;;;4995576;28;20034;-70
2021/09/26 12:04:09;;;;;;;10.77;5.85;;;22.20;74.40;;;;;;4995869;28;20034;-70
2021/09/26 12:06:35;;;;;;;13.20;5.28;;;22.20;74.40;;;;;;4995767;28;20382;-71
2021/09/26 12:09:02;;;;;;;11.05;5.35;;;22.20;74.50;;;;;;4995360;28;20035;-70
2021/09/26 12:11:28;;;;;;;8.45;5.53;;;22.20;74.50;;;;;;4995887;28;20042;-69
2021/09/26 12:13:56;;;;;;;6.47;4.95;;;22.20;74.80;;;;;;4995969;28;20113;-70
2021/09/26 12:16:22;;;;;;;12.32;5.75;;;22.30;74.70;;;;;;4995843;28;20486;-70
2021/09/26 12:18:50;;;;;;;9.25;5.50;;;22.30;74.80;;;;;;4995378;28;20034;-71
2021/09/26 12:21:16;;;;;;;5.32;4.82;;;22.20;74.60;;;;;;4995908;28;20030;-71
2021/09/26 12:24:04;;;;;;;5.22;4.72;;;22.30;74.90;;;;;;4995505;28;20045;-71
2021/09/26 12:26:40;;;;;;;7.07;5.57;;;22.30;75.00;;;;;;4995505;28;20042;-70
2021/09/26 12:29:12;;;;;;;8.25;5.80;;;22.20;75.20;;;;;;4995518;28;20447;-71
2021/09/26 12:31:41;;;;;;;11.00;6.05;;;22.20;75.10;;;;;;4994811;28;20137;-70
2021/09/26 12:34:08;;;;;;;9.70;6.25;;;22.30;75.10;;;;;;4995533;28;20359;-70
2021/09/26 12:36:41;;;;;;;6.70;5.85;;;22.30;75.10;;;;;;4995577;28;20042;-70
2021/09/26 12:39:10;;;;;;;;;;;22.30;75.10;;;;;;4995449;28;20453;-70
2021/09/26 12:41:37;;;;;;;10.85;6.05;;;22.30;74.90;;;;;;4995318;28;19906;-72
2021/09/26 12:44:08;;;;;;;11.57;6.30;;;22.30;74.90;;;;;;4995095;28;20034;-72
2021/09/26 12:46:42;;;;;;;8.02;5.88;;;22.30;74.80;;;;;;4994824;28;20080;-71